Aeroporto :







RITROVATECI SU...

 
LOGIN :

Iscrizione | Disclaimer

   EN    FR    IT 

 









Sommario :    VFR   VFR Marginale   IFR   IFR Intensivo   IFR Molto Intensivo
Visibilità : 
Base nubi : 
>= 8 km
>= 3000ft
5 / 8 km
1000 / 3000 ft
1500m / 5 km
500 / 1000 ft
800 / 1500m
200 / 500 ft
< 800m
< 200 ft
Simboli :   Temporali  Nebbia  Neve Forte  Precipitazioni Forti  Vento > 20 kt






- Altitudine del aeroporto : 172 ft
- Codice IATA : YYY


CYYY - Mont Joli

ULTIMO METAR :
  • 270000Z 20003KT 30SM -RA FEW056 OVC120 21/17 A3007 RMK SC3AC5 SLP183 DENSITY ALT 800FT

METARs OBSOLETI :
  • 262334Z 22004KT 30SM -RA FEW056 OVC120 22/16 A3007 RMK SC3AC5 SLP183 DENSITY ALT 900FT
  • 262300Z 23004KT 30SM FEW050 OVC110 21/16 A3006 RMK SC2AC6 SLP181 DENSITY ALT 800FT
  • 262200Z 24004KT 15SM FEW050 OVC140 22/15 A3004 RMK SC2AC6 SLP176 DENSITY ALT 900FT

TAF TAF CYYY
Valido dal 26 a 20 ore il 27 a 08 ore UTC


261942Z 2620/2708 27012G22KT P6SM BKN050
TEMPO 2620/2701 P6SM -SHRA
BECMG 2620/2622 23010KT
FM270100 23010KT P6SM -SHRA SCT006 BKN050
TEMPO 2701/2703 2SM -SHRA BR OVC006
PROB30 2701/2703 2SM TSRA BR OVC020CB
FM270300 VRB03KT 1SM -SHRA BR OVC003
FM270700 05008KT 1SM -DZ BR OVC003 RMK NXT FCST BY 270200Z
FIR CZUL / America del Nord



MetMap, La meteo Aeronautica in un colpo d'occhio ! - Copyright ORBIFLY Dicembre 2007 - Disclaimer

ORBIFLY MET'MAP TEAM :

Programmazione e sviluppo : Alexandra Zaïnal
Concezione : Baudouin d'Aumeries
Aiuto per la programmazione : Marc-Olivier Méhu
Supporto tecnico e logistico : Manuel Goepfert
Aiuto per la traduzione : Arnaldo La Scala

Contatto : metmap@orbifly.com




FONTI E CREDITI :

   NOAA